createdAt,value
2023-05-20T00:01:09.119Z,12.80
2023-05-20T00:05:19.893Z,12.70
2023-05-20T00:09:29.925Z,12.70
2023-05-20T00:13:39.560Z,12.70
2023-05-20T00:17:48.669Z,12.70
2023-05-20T00:22:00.355Z,12.70
2023-05-20T00:26:09.428Z,12.60
2023-05-20T00:30:18.784Z,12.70
2023-05-20T00:34:28.912Z,12.60
2023-05-20T00:38:39.632Z,12.50
2023-05-20T00:42:48.814Z,12.40
2023-05-20T00:46:58.381Z,12.40
2023-05-20T00:51:08.033Z,12.30
2023-05-20T00:55:19.061Z,12.10
2023-05-20T00:59:28.719Z,12.10
2023-05-20T01:03:38.004Z,12.00
2023-05-20T01:07:47.366Z,12.00
2023-05-20T01:12:05.273Z,11.90
2023-05-20T01:16:15.197Z,11.70
2023-05-20T01:20:25.438Z,11.70
2023-05-20T01:24:36.657Z,11.60
2023-05-20T01:28:45.938Z,11.60
2023-05-20T01:32:57.277Z,11.50
2023-05-20T01:37:08.687Z,11.40
2023-05-20T01:41:19.278Z,11.30
2023-05-20T01:45:28.612Z,11.20
2023-05-20T01:49:37.799Z,11.10
2023-05-20T01:53:46.978Z,11.00
2023-05-20T01:57:57.772Z,11.00
2023-05-20T02:02:06.923Z,11.00
2023-05-20T02:06:16.155Z,11.10
2023-05-20T02:10:25.333Z,11.00
2023-05-20T02:14:37.198Z,11.00
2023-05-20T02:18:46.407Z,10.90
2023-05-20T02:22:55.588Z,10.90
2023-05-20T02:27:05.140Z,10.90
2023-05-20T02:31:16.456Z,10.90
2023-05-20T02:35:25.692Z,10.90
2023-05-20T02:39:34.936Z,10.90
2023-05-20T02:43:45.436Z,10.80
2023-05-20T02:47:56.103Z,10.80
2023-05-20T02:52:05.791Z,10.80
2023-05-20T02:56:15.078Z,10.80
2023-05-20T03:00:24.882Z,10.80
2023-05-20T03:04:38.998Z,10.80
2023-05-20T03:08:48.431Z,10.70
2023-05-20T03:12:57.759Z,10.60
2023-05-20T03:17:07.129Z,10.60
2023-05-20T03:21:17.844Z,10.60
2023-05-20T03:25:27.515Z,10.60
2023-05-20T03:29:36.643Z,10.60
2023-05-20T03:33:46.492Z,10.60
2023-05-20T03:37:57.251Z,10.60
2023-05-20T03:42:07.201Z,10.60
2023-05-20T03:46:16.440Z,10.60
2023-05-20T03:50:25.571Z,10.50
2023-05-20T03:54:37.159Z,10.50
2023-05-20T03:58:46.269Z,10.50
2023-05-20T04:02:56.619Z,10.40
2023-05-20T04:07:06.532Z,10.40
2023-05-20T04:11:17.507Z,10.30
2023-05-20T04:15:26.884Z,10.20
2023-05-20T04:19:36.544Z,10.10
2023-05-20T04:23:45.928Z,9.90
2023-05-20T04:27:58.006Z,9.90
2023-05-20T04:32:11.394Z,9.80
2023-05-20T04:36:20.996Z,9.80
2023-05-20T04:40:30.110Z,9.80
2023-05-20T04:44:42.309Z,9.80
2023-05-20T04:48:51.611Z,9.80
2023-05-20T04:53:00.750Z,9.80
2023-05-20T04:57:09.978Z,9.80
2023-05-20T05:01:21.005Z,9.80
2023-05-20T05:05:30.164Z,9.80
2023-05-20T05:09:39.258Z,9.90
2023-05-20T05:13:48.421Z,10.00
2023-05-20T05:17:59.231Z,10.10
2023-05-20T05:22:08.454Z,10.10
2023-05-20T05:26:17.578Z,10.20
2023-05-20T05:30:27.061Z,10.20
2023-05-20T05:34:37.814Z,10.30
2023-05-20T05:38:46.798Z,10.40
2023-05-20T05:42:55.931Z,10.50
2023-05-20T05:47:06.163Z,10.60
2023-05-20T05:51:16.842Z,10.70
2023-05-20T05:55:26.074Z,10.80
2023-05-20T05:59:35.305Z,11.00
2023-05-20T06:03:44.485Z,11.10
2023-05-20T06:07:55.205Z,11.30
2023-05-20T06:12:04.403Z,11.40
2023-05-20T06:16:13.578Z,11.60
2023-05-20T06:20:22.749Z,11.70
2023-05-20T06:24:33.710Z,11.90
2023-05-20T06:28:43.180Z,12.00
2023-05-20T06:32:52.379Z,12.20
2023-05-20T06:37:01.511Z,12.30
2023-05-20T06:41:12.297Z,12.40
2023-05-20T06:45:22.152Z,12.50
2023-05-20T06:49:31.379Z,12.60
2023-05-20T06:53:40.633Z,12.70
2023-05-20T06:57:51.280Z,12.80
2023-05-20T07:02:00.489Z,12.90
2023-05-20T07:06:09.689Z,13.00
2023-05-20T07:10:18.963Z,13.20
2023-05-20T07:14:29.610Z,13.30
2023-05-20T07:18:38.713Z,13.40
2023-05-20T07:22:48.935Z,13.40
2023-05-20T07:26:58.092Z,13.50
2023-05-20T07:31:09.012Z,13.50
2023-05-20T07:35:18.229Z,13.50
2023-05-20T07:39:28.021Z,13.50
2023-05-20T07:43:37.258Z,13.70
2023-05-20T07:47:48.265Z,13.70
2023-05-20T07:51:57.383Z,13.80
2023-05-20T07:56:06.842Z,13.80
2023-05-20T08:00:16.328Z,13.90
2023-05-20T08:04:28.001Z,14.20
2023-05-20T08:08:37.206Z,14.20
2023-05-20T08:12:46.416Z,14.30
2023-05-20T08:16:55.859Z,14.40
2023-05-20T08:21:08.235Z,14.70
2023-05-20T08:25:17.319Z,14.80
2023-05-20T08:29:26.566Z,14.80
2023-05-20T08:33:35.877Z,15.00
2023-05-20T08:37:46.680Z,15.00
2023-05-20T08:41:55.992Z,15.10
2023-05-20T08:46:07.341Z,15.50
2023-05-20T08:50:17.866Z,15.70
2023-05-20T08:54:33.600Z,15.70
2023-05-20T08:58:43.557Z,15.80
2023-05-20T09:02:52.803Z,16.00
2023-05-20T09:07:02.091Z,16.30
2023-05-20T09:11:14.291Z,16.30
2023-05-20T09:15:23.590Z,16.30
2023-05-20T09:19:34.988Z,16.50
2023-05-20T09:23:50.040Z,16.50
2023-05-20T09:28:01.508Z,16.70
2023-05-20T09:32:11.381Z,16.90
2023-05-20T09:36:22.065Z,17.00
2023-05-20T09:40:32.167Z,17.00
2023-05-20T09:44:43.051Z,17.10
2023-05-20T09:48:53.081Z,17.20
2023-05-20T09:53:06.855Z,17.40
2023-05-20T09:57:16.368Z,17.70
2023-05-20T10:01:27.469Z,17.90
2023-05-20T10:05:41.823Z,18.00
2023-05-20T10:10:01.651Z,18.10
2023-05-20T10:14:35.014Z,17.90
2023-05-20T10:18:55.712Z,18.00
2023-05-20T10:23:05.986Z,18.20
2023-05-20T10:27:16.555Z,18.00
2023-05-20T10:31:26.090Z,18.30
2023-05-20T10:35:37.076Z,18.30
2023-05-20T10:39:46.807Z,18.70
2023-05-20T10:44:03.626Z,18.50
2023-05-20T10:48:22.729Z,18.60
2023-05-20T10:52:35.686Z,19.10
2023-05-20T10:56:54.376Z,19.30
2023-05-20T11:01:06.060Z,19.20
2023-05-20T11:05:18.756Z,19.30
2023-05-20T11:09:31.612Z,19.60
2023-05-20T11:13:41.320Z,19.60
2023-05-20T11:17:57.484Z,20.00
2023-05-20T11:22:09.953Z,20.00
2023-05-20T11:26:22.753Z,20.40
2023-05-20T11:30:33.878Z,20.10
2023-05-20T11:34:44.030Z,20.40
2023-05-20T11:38:54.028Z,19.70
2023-05-20T11:43:06.340Z,19.30
2023-05-20T11:47:17.661Z,19.70
2023-05-20T11:51:30.128Z,19.60
2023-05-20T11:55:48.032Z,19.50
2023-05-20T11:59:59.060Z,19.80
2023-05-20T12:04:08.684Z,20.00
2023-05-20T12:08:18.757Z,19.80
2023-05-20T12:12:28.015Z,19.70
2023-05-20T12:16:40.091Z,19.50
2023-05-20T12:20:49.707Z,19.70
2023-05-20T12:24:59.076Z,19.70
2023-05-20T12:29:08.665Z,19.80
2023-05-20T12:33:20.994Z,19.60
2023-05-20T12:37:30.366Z,19.50
2023-05-20T12:41:39.674Z,19.90
2023-05-20T12:45:49.193Z,19.20
2023-05-20T12:50:00.234Z,19.40
2023-05-20T12:54:09.736Z,19.30
2023-05-20T12:58:19.346Z,19.70
2023-05-20T13:02:28.968Z,20.00
2023-05-20T13:06:40.163Z,20.20
2023-05-20T13:10:49.656Z,20.30
2023-05-20T13:14:59.088Z,20.00
2023-05-20T13:19:08.340Z,20.30
2023-05-20T13:23:19.342Z,20.20
2023-05-20T13:27:28.940Z,19.30
2023-05-20T13:31:38.420Z,19.10
2023-05-20T13:35:47.935Z,19.10
2023-05-20T13:39:58.839Z,19.60
2023-05-20T13:44:08.045Z,19.80
2023-05-20T13:48:17.411Z,20.30
2023-05-20T13:52:27.798Z,20.70
2023-05-20T13:56:38.817Z,20.00
2023-05-20T14:00:48.160Z,20.40
2023-05-20T14:04:57.750Z,20.80
2023-05-20T14:09:10.420Z,20.40
2023-05-20T14:13:21.294Z,20.50
2023-05-20T14:17:30.720Z,20.10
2023-05-20T14:21:40.040Z,19.40
2023-05-20T14:25:49.255Z,19.90
2023-05-20T14:30:00.025Z,19.90
2023-05-20T14:34:09.202Z,19.40
2023-05-20T14:38:19.185Z,19.60
2023-05-20T14:42:28.579Z,20.40
2023-05-20T14:46:41.723Z,20.10
2023-05-20T14:50:51.470Z,19.80
2023-05-20T14:55:00.882Z,20.40
2023-05-20T14:59:10.272Z,20.40
2023-05-20T15:03:21.283Z,19.80
2023-05-20T15:07:30.998Z,19.90
2023-05-20T15:11:40.174Z,20.40
2023-05-20T15:15:49.553Z,20.10
2023-05-20T15:20:00.396Z,19.90
2023-05-20T15:24:09.726Z,20.10
2023-05-20T15:28:19.978Z,20.20
2023-05-20T15:32:30.892Z,20.20
2023-05-20T15:36:41.679Z,20.00
2023-05-20T15:40:51.207Z,20.30
2023-05-20T15:45:00.495Z,20.20
2023-05-20T15:49:09.850Z,20.00
2023-05-20T15:53:20.567Z,19.90
2023-05-20T15:57:30.913Z,20.10
2023-05-20T16:01:40.420Z,19.80
2023-05-20T16:05:49.808Z,19.70
2023-05-20T16:10:00.753Z,19.80
2023-05-20T16:14:10.116Z,19.70
2023-05-20T16:18:19.463Z,19.70
2023-05-20T16:22:28.576Z,19.40
2023-05-20T16:26:39.430Z,19.60
2023-05-20T16:30:49.713Z,19.70
2023-05-20T16:34:59.116Z,19.20
2023-05-20T16:39:08.285Z,18.90
2023-05-20T16:43:19.030Z,19.20
2023-05-20T16:47:28.309Z,19.20
2023-05-20T16:51:37.442Z,19.00
2023-05-20T16:55:46.935Z,19.00
2023-05-20T16:59:58.581Z,19.00
2023-05-20T17:04:07.969Z,18.90
2023-05-20T17:08:17.462Z,19.20
2023-05-20T17:12:26.755Z,19.00
2023-05-20T17:16:37.557Z,18.90
2023-05-20T17:20:46.805Z,18.80
2023-05-20T17:24:57.401Z,18.70
2023-05-20T17:29:06.918Z,18.90
2023-05-20T17:33:17.773Z,19.00
2023-05-20T17:37:27.063Z,18.70
2023-05-20T17:41:36.235Z,18.40
2023-05-20T17:45:45.382Z,18.50
2023-05-20T17:49:56.795Z,18.40
2023-05-20T17:54:06.542Z,18.10
2023-05-20T17:58:16.109Z,18.10
2023-05-20T18:02:25.329Z,18.00
2023-05-20T18:06:36.254Z,18.00
2023-05-20T18:10:45.464Z,17.90
2023-05-20T18:14:54.756Z,17.80
2023-05-20T18:19:04.289Z,17.60
2023-05-20T18:23:14.987Z,17.50
2023-05-20T18:27:24.168Z,17.30
2023-05-20T18:31:33.433Z,17.30
2023-05-20T18:35:42.692Z,17.40
2023-05-20T18:39:53.458Z,17.20
2023-05-20T18:44:04.484Z,17.00
2023-05-20T18:48:23.297Z,16.70
2023-05-20T18:52:35.950Z,16.50
2023-05-20T18:56:48.785Z,16.40
2023-05-20T19:00:58.098Z,16.30
2023-05-20T19:05:08.892Z,16.10
2023-05-20T19:09:17.937Z,16.10
2023-05-20T19:13:30.776Z,16.00
2023-05-20T19:17:40.117Z,15.90
2023-05-20T19:21:49.570Z,15.80
2023-05-20T19:25:58.797Z,15.60
2023-05-20T19:30:11.252Z,15.50
2023-05-20T19:34:20.393Z,15.50
2023-05-20T19:38:29.581Z,15.30
2023-05-20T19:42:38.646Z,15.20
2023-05-20T19:46:50.496Z,15.10
2023-05-20T19:51:00.685Z,15.00
2023-05-20T19:55:10.773Z,14.90
2023-05-20T19:59:19.982Z,14.80
2023-05-20T20:03:30.561Z,14.70
2023-05-20T20:07:39.996Z,14.60
2023-05-20T20:11:49.109Z,14.50
2023-05-20T20:15:59.136Z,14.40
2023-05-20T20:20:12.225Z,14.30
2023-05-20T20:24:21.680Z,14.30
2023-05-20T20:28:30.866Z,14.20
2023-05-20T20:32:40.051Z,14.10
2023-05-20T20:36:51.558Z,14.00
2023-05-20T20:41:04.078Z,14.00
2023-05-20T20:45:13.686Z,13.90
2023-05-20T20:49:25.749Z,13.90
2023-05-20T20:53:37.525Z,13.90
2023-05-20T20:57:46.722Z,13.80
2023-05-20T21:01:56.146Z,13.70
2023-05-20T21:06:05.500Z,13.70
2023-05-20T21:10:16.072Z,13.70
2023-05-20T21:14:25.640Z,13.60
2023-05-20T21:18:34.657Z,13.60
2023-05-20T21:22:43.903Z,13.50
2023-05-20T21:26:54.867Z,13.50
2023-05-20T21:31:04.191Z,13.40
2023-05-20T21:35:13.700Z,13.40
2023-05-20T21:39:22.969Z,13.30
2023-05-20T21:43:33.633Z,13.40
2023-05-20T21:47:42.706Z,13.30
2023-05-20T21:51:52.128Z,13.30
2023-05-20T21:56:01.374Z,13.20
2023-05-20T22:00:19.158Z,13.20
2023-05-20T22:04:28.940Z,13.10
2023-05-20T22:08:38.120Z,13.10
2023-05-20T22:12:48.053Z,13.00
2023-05-20T22:16:58.901Z,12.90
2023-05-20T22:21:08.125Z,12.90
2023-05-20T22:25:17.632Z,12.90
2023-05-20T22:29:26.683Z,13.00
2023-05-20T22:33:37.777Z,13.00
2023-05-20T22:37:47.081Z,12.90
2023-05-20T22:41:56.381Z,13.00
2023-05-20T22:46:05.628Z,12.90
2023-05-20T22:50:16.373Z,12.80
2023-05-20T22:54:25.503Z,12.80
2023-05-20T22:58:39.766Z,12.80
2023-05-20T23:02:50.272Z,12.80
2023-05-20T23:07:01.097Z,12.80
2023-05-20T23:11:10.242Z,12.80
2023-05-20T23:15:20.453Z,12.80
2023-05-20T23:19:29.779Z,12.80
2023-05-20T23:23:40.927Z,12.70
2023-05-20T23:27:50.320Z,12.70
2023-05-20T23:31:59.331Z,12.70
2023-05-20T23:36:09.750Z,12.60
2023-05-20T23:40:20.400Z,12.60
2023-05-20T23:44:29.788Z,12.60
2023-05-20T23:48:38.948Z,12.50
2023-05-20T23:52:48.112Z,12.60
2023-05-20T23:56:58.784Z,12.60
